sensor_id;sensor_type;location;lat;lon;timestamp;temperature;humidity
53310;DHT22;39197;53.200;5.792;2023-07-29T00:01:27;18.10;99.90
53310;DHT22;39197;53.200;5.792;2023-07-29T00:03:53;18.00;99.90
53310;DHT22;39197;53.200;5.792;2023-07-29T00:06:18;18.00;99.90
53310;DHT22;39197;53.200;5.792;2023-07-29T00:08:44;18.00;99.90
53310;DHT22;39197;53.200;5.792;2023-07-29T00:11:10;18.00;99.90
53310;DHT22;39197;53.200;5.792;2023-07-29T00:13:35;18.00;99.90
53310;DHT22;39197;53.200;5.792;2023-07-29T00:16:01;18.00;99.90
53310;DHT22;39197;53.200;5.792;2023-07-29T00:18:26;18.00;99.90
53310;DHT22;39197;53.200;5.792;2023-07-29T00:20:53;18.00;99.90
53310;DHT22;39197;53.200;5.792;2023-07-29T00:23:18;18.00;99.90
53310;DHT22;39197;53.200;5.792;2023-07-29T00:25:45;17.90;99.90
53310;DHT22;39197;53.200;5.792;2023-07-29T00:28:12;17.90;99.90
53310;DHT22;39197;53.200;5.792;2023-07-29T00:30:38;17.90;99.90
53310;DHT22;39197;53.200;5.792;2023-07-29T00:33:04;17.90;99.90
53310;DHT22;39197;53.200;5.792;2023-07-29T00:35:29;17.90;99.90
53310;DHT22;39197;53.200;5.792;2023-07-29T00:37:55;17.90;99.90
53310;DHT22;39197;53.200;5.792;2023-07-29T00:40:22;17.90;99.90
53310;DHT22;39197;53.200;5.792;2023-07-29T00:42:49;17.90;99.90
53310;DHT22;39197;53.200;5.792;2023-07-29T00:45:15;17.90;99.90
53310;DHT22;39197;53.200;5.792;2023-07-29T00:47:42;17.80;99.90
53310;DHT22;39197;53.200;5.792;2023-07-29T00:50:09;17.80;99.90
53310;DHT22;39197;53.200;5.792;2023-07-29T00:52:36;17.80;99.90
53310;DHT22;39197;53.200;5.792;2023-07-29T00:55:03;17.80;99.90
53310;DHT22;39197;53.200;5.792;2023-07-29T00:57:29;17.80;99.90
53310;DHT22;39197;53.200;5.792;2023-07-29T00:59:55;17.70;99.90
53310;DHT22;39197;53.200;5.792;2023-07-29T01:02:21;17.70;99.90
53310;DHT22;39197;53.200;5.792;2023-07-29T01:04:55;17.70;99.90
53310;DHT22;39197;53.200;5.792;2023-07-29T01:07:30;17.70;99.90
53310;DHT22;39197;53.200;5.792;2023-07-29T01:12:42;17.70;99.90
53310;DHT22;39197;53.200;5.792;2023-07-29T01:15:26;17.70;99.90
53310;DHT22;39197;53.200;5.792;2023-07-29T01:18:04;17.60;99.90
53310;DHT22;39197;53.200;5.792;2023-07-29T01:20:33;17.70;99.90
53310;DHT22;39197;53.200;5.792;2023-07-29T01:22:59;17.70;99.90
53310;DHT22;39197;53.200;5.792;2023-07-29T01:25:25;17.70;99.90
53310;DHT22;39197;53.200;5.792;2023-07-29T01:27:52;17.70;99.90
53310;DHT22;39197;53.200;5.792;2023-07-29T01:30:22;17.70;99.90
53310;DHT22;39197;53.200;5.792;2023-07-29T01:33:09;17.70;99.90
53310;DHT22;39197;53.200;5.792;2023-07-29T01:35:49;17.70;99.90
53310;DHT22;39197;53.200;5.792;2023-07-29T01:38:22;17.70;99.90
53310;DHT22;39197;53.200;5.792;2023-07-29T01:40:50;17.70;99.90
53310;DHT22;39197;53.200;5.792;2023-07-29T01:43:18;17.70;99.90
53310;DHT22;39197;53.200;5.792;2023-07-29T01:45:49;17.80;99.90
53310;DHT22;39197;53.200;5.792;2023-07-29T01:48:14;17.70;99.90
53310;DHT22;39197;53.200;5.792;2023-07-29T01:50:40;17.70;99.90
53310;DHT22;39197;53.200;5.792;2023-07-29T01:53:06;17.70;99.90
53310;DHT22;39197;53.200;5.792;2023-07-29T01:55:31;17.70;99.90
53310;DHT22;39197;53.200;5.792;2023-07-29T01:57:57;17.70;99.90
53310;DHT22;39197;53.200;5.792;2023-07-29T02:00:23;17.70;99.90
53310;DHT22;39197;53.200;5.792;2023-07-29T02:02:49;17.70;99.90
53310;DHT22;39197;53.200;5.792;2023-07-29T02:05:15;17.70;99.90
53310;DHT22;39197;53.200;5.792;2023-07-29T02:07:40;17.70;99.90
53310;DHT22;39197;53.200;5.792;2023-07-29T02:10:06;17.70;99.90
53310;DHT22;39197;53.200;5.792;2023-07-29T02:12:33;17.70;99.90
53310;DHT22;39197;53.200;5.792;2023-07-29T02:14:58;17.60;99.90
53310;DHT22;39197;53.200;5.792;2023-07-29T02:17:24;17.70;99.90
53310;DHT22;39197;53.200;5.792;2023-07-29T02:19:51;17.70;99.90
53310;DHT22;39197;53.200;5.792;2023-07-29T02:22:17;17.60;99.90
53310;DHT22;39197;53.200;5.792;2023-07-29T02:24:44;17.60;99.90
53310;DHT22;39197;53.200;5.792;2023-07-29T02:27:10;17.60;99.90
53310;DHT22;39197;53.200;5.792;2023-07-29T02:29:36;17.50;99.90
53310;DHT22;39197;53.200;5.792;2023-07-29T02:32:02;17.60;99.90
53310;DHT22;39197;53.200;5.792;2023-07-29T02:34:29;17.50;99.90
53310;DHT22;39197;53.200;5.792;2023-07-29T02:36:55;17.50;99.90
53310;DHT22;39197;53.200;5.792;2023-07-29T02:39:20;17.50;99.90
53310;DHT22;39197;53.200;5.792;2023-07-29T02:41:47;17.50;99.90
53310;DHT22;39197;53.200;5.792;2023-07-29T02:44:12;17.50;99.90
53310;DHT22;39197;53.200;5.792;2023-07-29T02:46:38;17.50;99.90
53310;DHT22;39197;53.200;5.792;2023-07-29T02:49:04;17.50;99.90
53310;DHT22;39197;53.200;5.792;2023-07-29T02:51:30;17.50;99.90
53310;DHT22;39197;53.200;5.792;2023-07-29T02:53:56;17.50;99.90
53310;DHT22;39197;53.200;5.792;2023-07-29T02:56:22;17.40;99.90
53310;DHT22;39197;53.200;5.792;2023-07-29T02:58:47;17.40;99.90
53310;DHT22;39197;53.200;5.792;2023-07-29T03:01:13;17.40;99.90
53310;DHT22;39197;53.200;5.792;2023-07-29T03:03:39;17.30;99.90
53310;DHT22;39197;53.200;5.792;2023-07-29T03:06:07;17.40;99.90
53310;DHT22;39197;53.200;5.792;2023-07-29T03:08:33;17.30;99.90
53310;DHT22;39197;53.200;5.792;2023-07-29T03:11:04;17.20;99.90
53310;DHT22;39197;53.200;5.792;2023-07-29T03:13:30;17.20;99.90
53310;DHT22;39197;53.200;5.792;2023-07-29T03:16:05;17.10;99.90
53310;DHT22;39197;53.200;5.792;2023-07-29T03:18:30;17.10;99.90
53310;DHT22;39197;53.200;5.792;2023-07-29T03:20:56;17.00;99.90
53310;DHT22;39197;53.200;5.792;2023-07-29T03:23:22;17.00;99.90
53310;DHT22;39197;53.200;5.792;2023-07-29T03:25:50;17.00;99.90
53310;DHT22;39197;53.200;5.792;2023-07-29T03:28:32;16.90;99.90
53310;DHT22;39197;53.200;5.792;2023-07-29T03:30:57;16.90;99.90
53310;DHT22;39197;53.200;5.792;2023-07-29T03:33:24;16.80;99.90
53310;DHT22;39197;53.200;5.792;2023-07-29T03:35:50;16.90;99.90
53310;DHT22;39197;53.200;5.792;2023-07-29T03:38:16;16.80;99.90
53310;DHT22;39197;53.200;5.792;2023-07-29T03:40:42;16.80;99.90
53310;DHT22;39197;53.200;5.792;2023-07-29T03:43:08;16.70;99.90
53310;DHT22;39197;53.200;5.792;2023-07-29T03:45:35;16.70;99.90
53310;DHT22;39197;53.200;5.792;2023-07-29T03:48:01;16.60;99.90
53310;DHT22;39197;53.200;5.792;2023-07-29T03:50:27;16.60;99.90
53310;DHT22;39197;53.200;5.792;2023-07-29T03:52:53;16.60;99.90
53310;DHT22;39197;53.200;5.792;2023-07-29T03:55:18;16.50;99.90
53310;DHT22;39197;53.200;5.792;2023-07-29T03:57:44;16.60;99.90
53310;DHT22;39197;53.200;5.792;2023-07-29T04:00:10;16.60;99.90
53310;DHT22;39197;53.200;5.792;2023-07-29T04:02:36;16.60;99.90
53310;DHT22;39197;53.200;5.792;2023-07-29T04:05:05;16.50;99.90
53310;DHT22;39197;53.200;5.792;2023-07-29T04:07:34;16.50;99.90
53310;DHT22;39197;53.200;5.792;2023-07-29T04:10:00;16.50;99.90
53310;DHT22;39197;53.200;5.792;2023-07-29T04:12:26;16.50;99.90
53310;DHT22;39197;53.200;5.792;2023-07-29T04:14:52;16.50;99.90
53310;DHT22;39197;53.200;5.792;2023-07-29T04:17:18;16.50;99.90
53310;DHT22;39197;53.200;5.792;2023-07-29T04:19:44;16.50;99.90
53310;DHT22;39197;53.200;5.792;2023-07-29T04:22:10;16.50;99.90
53310;DHT22;39197;53.200;5.792;2023-07-29T04:24:35;16.50;99.90
53310;DHT22;39197;53.200;5.792;2023-07-29T04:27:01;16.50;99.90
53310;DHT22;39197;53.200;5.792;2023-07-29T04:29:26;16.50;99.90
53310;DHT22;39197;53.200;5.792;2023-07-29T04:31:53;16.40;99.90
53310;DHT22;39197;53.200;5.792;2023-07-29T04:34:19;16.50;99.90
53310;DHT22;39197;53.200;5.792;2023-07-29T04:36:48;16.50;99.90
53310;DHT22;39197;53.200;5.792;2023-07-29T04:39:14;16.50;99.90
53310;DHT22;39197;53.200;5.792;2023-07-29T04:41:40;16.50;99.90
53310;DHT22;39197;53.200;5.792;2023-07-29T04:44:06;16.50;99.90
53310;DHT22;39197;53.200;5.792;2023-07-29T04:46:32;16.50;99.90
53310;DHT22;39197;53.200;5.792;2023-07-29T04:48:58;16.50;99.90
53310;DHT22;39197;53.200;5.792;2023-07-29T04:51:24;16.60;99.90
53310;DHT22;39197;53.200;5.792;2023-07-29T04:53:49;16.60;99.90
53310;DHT22;39197;53.200;5.792;2023-07-29T04:56:15;16.60;99.90
53310;DHT22;39197;53.200;5.792;2023-07-29T04:58:41;16.60;99.90
53310;DHT22;39197;53.200;5.792;2023-07-29T05:01:07;16.60;99.90
53310;DHT22;39197;53.200;5.792;2023-07-29T05:03:32;16.70;99.90
53310;DHT22;39197;53.200;5.792;2023-07-29T05:05:59;16.70;99.90
53310;DHT22;39197;53.200;5.792;2023-07-29T05:08:26;16.70;99.90
53310;DHT22;39197;53.200;5.792;2023-07-29T05:10:53;16.70;99.90
53310;DHT22;39197;53.200;5.792;2023-07-29T05:13:19;16.80;99.90
53310;DHT22;39197;53.200;5.792;2023-07-29T05:15:47;16.80;99.90
53310;DHT22;39197;53.200;5.792;2023-07-29T05:18:13;16.80;99.90
53310;DHT22;39197;53.200;5.792;2023-07-29T05:20:39;16.90;99.90
53310;DHT22;39197;53.200;5.792;2023-07-29T05:23:05;16.90;99.90
53310;DHT22;39197;53.200;5.792;2023-07-29T05:25:30;16.90;99.90
53310;DHT22;39197;53.200;5.792;2023-07-29T05:27:56;16.90;99.90
53310;DHT22;39197;53.200;5.792;2023-07-29T05:30:22;16.90;99.90
53310;DHT22;39197;53.200;5.792;2023-07-29T05:32:48;17.00;99.90
53310;DHT22;39197;53.200;5.792;2023-07-29T05:35:14;17.00;99.90
53310;DHT22;39197;53.200;5.792;2023-07-29T05:37:40;16.90;99.90
53310;DHT22;39197;53.200;5.792;2023-07-29T05:40:07;16.90;99.90
53310;DHT22;39197;53.200;5.792;2023-07-29T05:42:33;17.00;99.90
53310;DHT22;39197;53.200;5.792;2023-07-29T05:44:59;17.00;99.90
53310;DHT22;39197;53.200;5.792;2023-07-29T05:47:25;17.00;99.90
53310;DHT22;39197;53.200;5.792;2023-07-29T05:49:51;17.10;99.90
53310;DHT22;39197;53.200;5.792;2023-07-29T05:52:16;17.00;99.90
53310;DHT22;39197;53.200;5.792;2023-07-29T05:54:42;17.10;99.90
53310;DHT22;39197;53.200;5.792;2023-07-29T05:57:09;17.10;99.90
53310;DHT22;39197;53.200;5.792;2023-07-29T05:59:35;17.20;99.90
53310;DHT22;39197;53.200;5.792;2023-07-29T06:02:01;17.20;99.90
53310;DHT22;39197;53.200;5.792;2023-07-29T06:04:26;17.30;99.90
53310;DHT22;39197;53.200;5.792;2023-07-29T06:06:52;17.40;99.90
53310;DHT22;39197;53.200;5.792;2023-07-29T06:09:18;17.40;99.90
53310;DHT22;39197;53.200;5.792;2023-07-29T06:11:44;17.50;99.90
53310;DHT22;39197;53.200;5.792;2023-07-29T06:14:09;17.60;99.90
53310;DHT22;39197;53.200;5.792;2023-07-29T06:16:35;17.60;99.90
53310;DHT22;39197;53.200;5.792;2023-07-29T06:19:01;17.80;99.90
53310;DHT22;39197;53.200;5.792;2023-07-29T06:21:26;17.80;99.90
53310;DHT22;39197;53.200;5.792;2023-07-29T06:23:52;18.00;99.90
53310;DHT22;39197;53.200;5.792;2023-07-29T06:26:18;18.10;99.90
53310;DHT22;39197;53.200;5.792;2023-07-29T06:28:44;18.20;99.90
53310;DHT22;39197;53.200;5.792;2023-07-29T06:31:10;18.30;99.90
53310;DHT22;39197;53.200;5.792;2023-07-29T06:33:35;18.30;99.90
53310;DHT22;39197;53.200;5.792;2023-07-29T06:36:01;18.30;99.90
53310;DHT22;39197;53.200;5.792;2023-07-29T06:38:27;18.30;99.90
53310;DHT22;39197;53.200;5.792;2023-07-29T06:40:52;18.30;99.90
53310;DHT22;39197;53.200;5.792;2023-07-29T06:43:18;18.40;99.90
53310;DHT22;39197;53.200;5.792;2023-07-29T06:45:44;18.30;99.90
53310;DHT22;39197;53.200;5.792;2023-07-29T06:48:09;18.40;99.90
53310;DHT22;39197;53.200;5.792;2023-07-29T06:50:35;18.30;99.90
53310;DHT22;39197;53.200;5.792;2023-07-29T06:53:01;18.30;99.90
53310;DHT22;39197;53.200;5.792;2023-07-29T06:55:26;18.30;99.90
53310;DHT22;39197;53.200;5.792;2023-07-29T06:57:52;18.30;99.90
53310;DHT22;39197;53.200;5.792;2023-07-29T07:00:18;18.30;99.90
53310;DHT22;39197;53.200;5.792;2023-07-29T07:02:43;18.30;99.90
53310;DHT22;39197;53.200;5.792;2023-07-29T07:05:09;18.20;99.90
53310;DHT22;39197;53.200;5.792;2023-07-29T07:07:35;18.20;99.90
53310;DHT22;39197;53.200;5.792;2023-07-29T07:10:00;18.30;99.90
53310;DHT22;39197;53.200;5.792;2023-07-29T07:12:26;18.30;99.90
53310;DHT22;39197;53.200;5.792;2023-07-29T07:14:52;18.40;99.90
53310;DHT22;39197;53.200;5.792;2023-07-29T07:17:18;18.40;99.90
53310;DHT22;39197;53.200;5.792;2023-07-29T07:19:43;18.60;99.90
53310;DHT22;39197;53.200;5.792;2023-07-29T07:22:09;19.00;99.90
53310;DHT22;39197;53.200;5.792;2023-07-29T07:24:35;19.30;99.90
53310;DHT22;39197;53.200;5.792;2023-07-29T07:27:02;19.40;99.90
53310;DHT22;39197;53.200;5.792;2023-07-29T07:29:27;19.40;99.90
53310;DHT22;39197;53.200;5.792;2023-07-29T07:31:54;19.30;99.90
53310;DHT22;39197;53.200;5.792;2023-07-29T07:34:20;19.20;99.90
53310;DHT22;39197;53.200;5.792;2023-07-29T07:36:46;18.90;99.90
53310;DHT22;39197;53.200;5.792;2023-07-29T07:39:12;18.90;99.90
53310;DHT22;39197;53.200;5.792;2023-07-29T07:41:38;18.90;99.90
53310;DHT22;39197;53.200;5.792;2023-07-29T07:44:03;18.90;99.90
53310;DHT22;39197;53.200;5.792;2023-07-29T07:46:29;19.00;99.90
53310;DHT22;39197;53.200;5.792;2023-07-29T07:48:55;18.90;99.90
53310;DHT22;39197;53.200;5.792;2023-07-29T07:51:20;19.10;99.90
53310;DHT22;39197;53.200;5.792;2023-07-29T07:53:46;19.00;99.90
53310;DHT22;39197;53.200;5.792;2023-07-29T07:56:12;19.20;99.90
53310;DHT22;39197;53.200;5.792;2023-07-29T07:58:38;19.00;99.90
53310;DHT22;39197;53.200;5.792;2023-07-29T08:01:05;19.40;99.90
53310;DHT22;39197;53.200;5.792;2023-07-29T08:03:31;19.50;99.90
53310;DHT22;39197;53.200;5.792;2023-07-29T08:05:58;19.60;99.90
53310;DHT22;39197;53.200;5.792;2023-07-29T08:08:24;19.70;99.90
53310;DHT22;39197;53.200;5.792;2023-07-29T08:10:51;19.80;99.90
53310;DHT22;39197;53.200;5.792;2023-07-29T08:13:17;19.70;99.90
53310;DHT22;39197;53.200;5.792;2023-07-29T08:15:49;19.50;99.90
53310;DHT22;39197;53.200;5.792;2023-07-29T08:18:15;19.60;99.90
53310;DHT22;39197;53.200;5.792;2023-07-29T08:20:41;19.50;99.90
53310;DHT22;39197;53.200;5.792;2023-07-29T08:23:16;19.50;99.90
53310;DHT22;39197;53.200;5.792;2023-07-29T08:25:42;19.50;99.90
53310;DHT22;39197;53.200;5.792;2023-07-29T08:28:07;19.50;99.90
53310;DHT22;39197;53.200;5.792;2023-07-29T08:30:33;19.40;99.90
53310;DHT22;39197;53.200;5.792;2023-07-29T08:32:58;19.40;99.90
53310;DHT22;39197;53.200;5.792;2023-07-29T08:35:24;19.40;99.90
53310;DHT22;39197;53.200;5.792;2023-07-29T08:37:50;19.60;99.90
53310;DHT22;39197;53.200;5.792;2023-07-29T08:40:15;19.60;99.90
53310;DHT22;39197;53.200;5.792;2023-07-29T08:42:41;19.80;99.90
53310;DHT22;39197;53.200;5.792;2023-07-29T08:45:10;20.20;99.90
53310;DHT22;39197;53.200;5.792;2023-07-29T08:47:37;20.30;99.90
53310;DHT22;39197;53.200;5.792;2023-07-29T08:50:03;20.20;99.90
53310;DHT22;39197;53.200;5.792;2023-07-29T08:52:29;20.10;99.90
53310;DHT22;39197;53.200;5.792;2023-07-29T08:54:58;20.10;99.90
53310;DHT22;39197;53.200;5.792;2023-07-29T08:57:28;20.20;99.90
53310;DHT22;39197;53.200;5.792;2023-07-29T08:59:58;20.20;99.90
53310;DHT22;39197;53.200;5.792;2023-07-29T09:02:26;19.90;99.90
53310;DHT22;39197;53.200;5.792;2023-07-29T09:04:52;20.00;99.90
53310;DHT22;39197;53.200;5.792;2023-07-29T09:07:19;20.00;99.90
53310;DHT22;39197;53.200;5.792;2023-07-29T09:09:46;20.00;99.90
53310;DHT22;39197;53.200;5.792;2023-07-29T09:12:12;20.00;99.90
53310;DHT22;39197;53.200;5.792;2023-07-29T09:14:38;20.00;99.90
53310;DHT22;39197;53.200;5.792;2023-07-29T09:17:07;20.10;99.90
53310;DHT22;39197;53.200;5.792;2023-07-29T09:19:33;20.10;99.90
53310;DHT22;39197;53.200;5.792;2023-07-29T09:22:00;20.00;99.90
53310;DHT22;39197;53.200;5.792;2023-07-29T09:24:26;20.10;99.90
53310;DHT22;39197;53.200;5.792;2023-07-29T09:26:55;20.30;99.90
53310;DHT22;39197;53.200;5.792;2023-07-29T09:29:27;20.20;99.90
53310;DHT22;39197;53.200;5.792;2023-07-29T09:32:23;20.30;99.90
53310;DHT22;39197;53.200;5.792;2023-07-29T09:34:50;20.30;99.90
53310;DHT22;39197;53.200;5.792;2023-07-29T09:37:22;20.40;99.90
53310;DHT22;39197;53.200;5.792;2023-07-29T09:39:49;20.10;99.90
53310;DHT22;39197;53.200;5.792;2023-07-29T09:42:19;20.20;99.90
53310;DHT22;39197;53.200;5.792;2023-07-29T09:44:45;20.30;99.90
53310;DHT22;39197;53.200;5.792;2023-07-29T09:47:20;20.40;99.90
53310;DHT22;39197;53.200;5.792;2023-07-29T09:49:47;20.30;99.90
53310;DHT22;39197;53.200;5.792;2023-07-29T09:52:15;20.20;99.90
53310;DHT22;39197;53.200;5.792;2023-07-29T09:54:43;20.30;99.90
53310;DHT22;39197;53.200;5.792;2023-07-29T09:57:12;20.40;99.90
53310;DHT22;39197;53.200;5.792;2023-07-29T09:59:39;20.80;99.90
53310;DHT22;39197;53.200;5.792;2023-07-29T10:02:06;21.40;99.90
53310;DHT22;39197;53.200;5.792;2023-07-29T10:04:34;21.80;99.90
53310;DHT22;39197;53.200;5.792;2023-07-29T10:07:01;22.20;99.90
53310;DHT22;39197;53.200;5.792;2023-07-29T10:09:27;22.40;99.90
53310;DHT22;39197;53.200;5.792;2023-07-29T10:11:54;22.30;99.90
53310;DHT22;39197;53.200;5.792;2023-07-29T10:14:20;22.10;99.90
53310;DHT22;39197;53.200;5.792;2023-07-29T10:16:47;21.60;99.90
53310;DHT22;39197;53.200;5.792;2023-07-29T10:19:13;21.40;99.90
53310;DHT22;39197;53.200;5.792;2023-07-29T10:21:44;21.70;99.90
53310;DHT22;39197;53.200;5.792;2023-07-29T10:24:19;21.60;99.90
53310;DHT22;39197;53.200;5.792;2023-07-29T10:26:50;21.80;99.90
53310;DHT22;39197;53.200;5.792;2023-07-29T10:29:19;21.60;99.90
53310;DHT22;39197;53.200;5.792;2023-07-29T10:31:47;21.90;99.90
53310;DHT22;39197;53.200;5.792;2023-07-29T10:34:14;21.80;99.90
53310;DHT22;39197;53.200;5.792;2023-07-29T10:36:41;21.90;99.90
53310;DHT22;39197;53.200;5.792;2023-07-29T10:39:07;21.70;99.90
53310;DHT22;39197;53.200;5.792;2023-07-29T10:41:56;21.90;99.90
53310;DHT22;39197;53.200;5.792;2023-07-29T10:49:46;21.70;99.90
53310;DHT22;39197;53.200;5.792;2023-07-29T10:52:16;21.40;99.90
53310;DHT22;39197;53.200;5.792;2023-07-29T10:54:46;21.30;99.90
53310;DHT22;39197;53.200;5.792;2023-07-29T10:57:30;21.10;99.90
53310;DHT22;39197;53.200;5.792;2023-07-29T10:59:57;20.90;99.90
53310;DHT22;39197;53.200;5.792;2023-07-29T11:02:35;20.80;99.90
53310;DHT22;39197;53.200;5.792;2023-07-29T11:05:06;20.40;99.90
53310;DHT22;39197;53.200;5.792;2023-07-29T11:07:43;19.80;99.90
53310;DHT22;39197;53.200;5.792;2023-07-29T11:10:11;19.50;99.90
53310;DHT22;39197;53.200;5.792;2023-07-29T11:12:42;19.50;99.90
53310;DHT22;39197;53.200;5.792;2023-07-29T11:15:16;19.30;99.90
53310;DHT22;39197;53.200;5.792;2023-07-29T11:17:53;19.00;99.90
53310;DHT22;39197;53.200;5.792;2023-07-29T11:20:22;19.10;99.90
53310;DHT22;39197;53.200;5.792;2023-07-29T11:22:48;19.20;99.90
53310;DHT22;39197;53.200;5.792;2023-07-29T11:25:18;19.50;99.90
53310;DHT22;39197;53.200;5.792;2023-07-29T11:27:45;20.00;99.90
53310;DHT22;39197;53.200;5.792;2023-07-29T11:30:13;20.40;99.90
53310;DHT22;39197;53.200;5.792;2023-07-29T11:32:40;20.50;99.90
53310;DHT22;39197;53.200;5.792;2023-07-29T11:35:11;20.80;99.90
53310;DHT22;39197;53.200;5.792;2023-07-29T11:37:39;21.10;99.90
53310;DHT22;39197;53.200;5.792;2023-07-29T11:40:05;21.40;99.90
53310;DHT22;39197;53.200;5.792;2023-07-29T11:42:32;22.00;99.90
53310;DHT22;39197;53.200;5.792;2023-07-29T11:45:00;22.40;99.90
53310;DHT22;39197;53.200;5.792;2023-07-29T11:47:26;22.30;99.90
53310;DHT22;39197;53.200;5.792;2023-07-29T11:49:53;22.40;99.90
53310;DHT22;39197;53.200;5.792;2023-07-29T11:52:19;22.20;99.90
53310;DHT22;39197;53.200;5.792;2023-07-29T11:54:49;22.00;99.90
53310;DHT22;39197;53.200;5.792;2023-07-29T11:57:16;21.80;99.90
53310;DHT22;39197;53.200;5.792;2023-07-29T11:59:44;21.40;99.90
53310;DHT22;39197;53.200;5.792;2023-07-29T12:02:17;21.20;99.90
53310;DHT22;39197;53.200;5.792;2023-07-29T12:04:47;21.20;99.90
53310;DHT22;39197;53.200;5.792;2023-07-29T12:07:17;21.10;99.90
53310;DHT22;39197;53.200;5.792;2023-07-29T12:09:45;20.80;99.90
53310;DHT22;39197;53.200;5.792;2023-07-29T12:12:12;20.80;99.90
53310;DHT22;39197;53.200;5.792;2023-07-29T12:14:38;20.80;99.90
53310;DHT22;39197;53.200;5.792;2023-07-29T12:17:06;20.90;99.90
53310;DHT22;39197;53.200;5.792;2023-07-29T12:19:36;20.80;99.90
53310;DHT22;39197;53.200;5.792;2023-07-29T12:22:03;20.80;99.90
53310;DHT22;39197;53.200;5.792;2023-07-29T12:24:31;20.90;99.90
53310;DHT22;39197;53.200;5.792;2023-07-29T12:26:58;21.00;99.90
53310;DHT22;39197;53.200;5.792;2023-07-29T12:29:24;21.10;99.90
53310;DHT22;39197;53.200;5.792;2023-07-29T12:31:58;21.40;99.90
53310;DHT22;39197;53.200;5.792;2023-07-29T12:34:27;21.70;99.90
53310;DHT22;39197;53.200;5.792;2023-07-29T12:36:57;21.90;99.90
53310;DHT22;39197;53.200;5.792;2023-07-29T12:39:30;21.90;99.90
53310;DHT22;39197;53.200;5.792;2023-07-29T12:41:58;21.90;99.90
53310;DHT22;39197;53.200;5.792;2023-07-29T12:44:32;21.90;99.90
53310;DHT22;39197;53.200;5.792;2023-07-29T12:46:59;21.90;99.90
53310;DHT22;39197;53.200;5.792;2023-07-29T12:49:26;22.10;99.90
53310;DHT22;39197;53.200;5.792;2023-07-29T12:51:56;22.50;99.90
53310;DHT22;39197;53.200;5.792;2023-07-29T12:54:22;22.50;99.90
53310;DHT22;39197;53.200;5.792;2023-07-29T12:56:48;22.70;99.90
53310;DHT22;39197;53.200;5.792;2023-07-29T12:59:17;22.80;99.90
53310;DHT22;39197;53.200;5.792;2023-07-29T13:01:42;22.80;99.90
53310;DHT22;39197;53.200;5.792;2023-07-29T13:04:10;23.00;99.90
53310;DHT22;39197;53.200;5.792;2023-07-29T13:06:36;22.60;99.90
53310;DHT22;39197;53.200;5.792;2023-07-29T13:09:02;22.40;99.90
53310;DHT22;39197;53.200;5.792;2023-07-29T13:11:29;22.60;99.90
53310;DHT22;39197;53.200;5.792;2023-07-29T13:13:55;22.90;99.90
53310;DHT22;39197;53.200;5.792;2023-07-29T13:16:20;23.00;99.90
53310;DHT22;39197;53.200;5.792;2023-07-29T13:18:46;23.10;99.90
53310;DHT22;39197;53.200;5.792;2023-07-29T13:21:12;23.20;99.90
53310;DHT22;39197;53.200;5.792;2023-07-29T13:23:38;23.20;99.90
53310;DHT22;39197;53.200;5.792;2023-07-29T13:26:05;23.00;99.90
53310;DHT22;39197;53.200;5.792;2023-07-29T13:28:31;23.10;99.90
53310;DHT22;39197;53.200;5.792;2023-07-29T13:30:57;23.20;99.90
53310;DHT22;39197;53.200;5.792;2023-07-29T13:33:25;23.20;99.90
53310;DHT22;39197;53.200;5.792;2023-07-29T13:35:51;23.20;99.90
53310;DHT22;39197;53.200;5.792;2023-07-29T13:38:16;23.40;99.90
53310;DHT22;39197;53.200;5.792;2023-07-29T13:40:42;23.50;99.90
53310;DHT22;39197;53.200;5.792;2023-07-29T13:43:08;23.70;99.90
53310;DHT22;39197;53.200;5.792;2023-07-29T13:45:34;23.70;99.90
53310;DHT22;39197;53.200;5.792;2023-07-29T13:48:01;23.60;99.90
53310;DHT22;39197;53.200;5.792;2023-07-29T13:50:26;23.40;99.90
53310;DHT22;39197;53.200;5.792;2023-07-29T13:52:55;23.20;99.90
53310;DHT22;39197;53.200;5.792;2023-07-29T13:55:21;23.30;99.90
53310;DHT22;39197;53.200;5.792;2023-07-29T13:57:49;23.50;99.90
53310;DHT22;39197;53.200;5.792;2023-07-29T14:00:14;23.70;99.90
53310;DHT22;39197;53.200;5.792;2023-07-29T14:02:41;23.70;99.90
53310;DHT22;39197;53.200;5.792;2023-07-29T14:05:08;23.70;99.90
53310;DHT22;39197;53.200;5.792;2023-07-29T14:07:34;23.90;99.90
53310;DHT22;39197;53.200;5.792;2023-07-29T14:09:59;23.60;99.90
53310;DHT22;39197;53.200;5.792;2023-07-29T14:12:25;23.70;99.90
53310;DHT22;39197;53.200;5.792;2023-07-29T14:14:51;23.70;99.90
53310;DHT22;39197;53.200;5.792;2023-07-29T14:17:17;23.60;99.90
53310;DHT22;39197;53.200;5.792;2023-07-29T14:19:43;23.70;99.90
53310;DHT22;39197;53.200;5.792;2023-07-29T14:22:09;23.50;99.90
53310;DHT22;39197;53.200;5.792;2023-07-29T14:24:34;23.60;99.90
53310;DHT22;39197;53.200;5.792;2023-07-29T14:27:00;23.00;99.90
53310;DHT22;39197;53.200;5.792;2023-07-29T14:29:26;23.20;99.90
53310;DHT22;39197;53.200;5.792;2023-07-29T14:31:52;23.40;99.90
53310;DHT22;39197;53.200;5.792;2023-07-29T14:34:18;23.70;99.90
53310;DHT22;39197;53.200;5.792;2023-07-29T14:36:43;23.80;99.90
53310;DHT22;39197;53.200;5.792;2023-07-29T14:39:09;24.00;99.90
53310;DHT22;39197;53.200;5.792;2023-07-29T14:41:35;23.70;99.90
53310;DHT22;39197;53.200;5.792;2023-07-29T14:44:01;23.90;99.90
53310;DHT22;39197;53.200;5.792;2023-07-29T14:46:27;23.90;99.90
53310;DHT22;39197;53.200;5.792;2023-07-29T14:48:53;23.30;99.90
53310;DHT22;39197;53.200;5.792;2023-07-29T14:51:19;23.50;99.90
53310;DHT22;39197;53.200;5.792;2023-07-29T14:53:46;23.60;99.90
53310;DHT22;39197;53.200;5.792;2023-07-29T14:56:12;23.30;99.90
53310;DHT22;39197;53.200;5.792;2023-07-29T14:58:39;23.30;99.90
53310;DHT22;39197;53.200;5.792;2023-07-29T15:01:05;23.20;99.90
53310;DHT22;39197;53.200;5.792;2023-07-29T15:03:32;23.40;99.90
53310;DHT22;39197;53.200;5.792;2023-07-29T15:06:00;23.40;99.90
53310;DHT22;39197;53.200;5.792;2023-07-29T15:08:26;23.40;99.90
53310;DHT22;39197;53.200;5.792;2023-07-29T15:10:52;23.20;99.90
53310;DHT22;39197;53.200;5.792;2023-07-29T15:13:19;23.20;99.90
53310;DHT22;39197;53.200;5.792;2023-07-29T15:15:52;23.30;99.90
53310;DHT22;39197;53.200;5.792;2023-07-29T15:18:17;23.40;99.90
53310;DHT22;39197;53.200;5.792;2023-07-29T15:20:44;23.20;99.90
53310;DHT22;39197;53.200;5.792;2023-07-29T15:23:10;23.40;99.90
53310;DHT22;39197;53.200;5.792;2023-07-29T15:25:36;23.10;99.90
53310;DHT22;39197;53.200;5.792;2023-07-29T15:28:05;22.80;99.90
53310;DHT22;39197;53.200;5.792;2023-07-29T15:30:31;23.10;99.90
53310;DHT22;39197;53.200;5.792;2023-07-29T15:32:56;22.80;99.90
53310;DHT22;39197;53.200;5.792;2023-07-29T15:35:22;23.10;99.90
53310;DHT22;39197;53.200;5.792;2023-07-29T15:37:48;22.90;99.90